createdAt,value
2022-10-29T00:00:38.957Z,98253.22
2022-10-29T00:03:05.696Z,98248.09
2022-10-29T00:05:32.488Z,98254.91
2022-10-29T00:07:59.051Z,98248.91
2022-10-29T00:10:25.596Z,98241.94
2022-10-29T00:12:52.079Z,98248.91
2022-10-29T00:15:18.609Z,98249.75
2022-10-29T00:17:45.097Z,98248.91
2022-10-29T00:20:11.676Z,98239.53
2022-10-29T00:22:39.352Z,98237.84
2022-10-29T00:25:06.168Z,98241.28
2022-10-29T00:27:32.658Z,98243.84
2022-10-29T00:29:59.144Z,98250.66
2022-10-29T00:32:25.637Z,98252.25
2022-10-29T00:34:52.143Z,98264.22
2022-10-29T00:37:18.679Z,98260.06
2022-10-29T00:39:45.206Z,98269.47
2022-10-29T00:42:17.743Z,98273.72
2022-10-29T00:44:44.248Z,98273.72
2022-10-29T00:47:16.787Z,98278.78
2022-10-29T00:49:43.325Z,98244.19
2022-10-29T00:52:09.811Z,98285.69
2022-10-29T00:54:38.786Z,98252.78
2022-10-29T00:57:11.210Z,98282.22
2022-10-29T00:59:37.744Z,98289.09
2022-10-29T01:02:04.444Z,98290.81
2022-10-29T01:04:31.085Z,98299.34
2022-10-29T01:06:57.572Z,98291.59
2022-10-29T01:09:24.095Z,98282.22
2022-10-29T01:11:59.496Z,98286.47
2022-10-29T01:15:33.722Z,98284.78
2022-10-29T01:18:15.230Z,98283.91
2022-10-29T01:21:03.319Z,98284.78
2022-10-29T01:24:01.027Z,98281.34
2022-10-29T01:27:09.180Z,98284.78
2022-10-29T01:29:51.346Z,98258.66
2022-10-29T01:32:22.060Z,98271.09
2022-10-29T01:34:57.360Z,98265.97
2022-10-29T01:37:35.467Z,98265.97
2022-10-29T01:40:17.343Z,98262.56
2022-10-29T01:43:08.201Z,98255.72
2022-10-29T01:45:34.642Z,98257.44
2022-10-29T01:48:04.556Z,98239.78
2022-10-29T01:50:31.036Z,98265.97
2022-10-29T01:52:57.514Z,98263.34
2022-10-29T01:55:29.998Z,98265.91
2022-10-29T01:57:56.913Z,98257.44
2022-10-29T02:00:25.130Z,98257.44
2022-10-29T02:03:20.137Z,98254.88
2022-10-29T02:06:23.723Z,98251.41
2022-10-29T02:08:59.185Z,98251.41
2022-10-29T02:11:27.630Z,98246.28
2022-10-29T02:14:04.523Z,98239.22
2022-10-29T02:16:31.162Z,98245.47
2022-10-29T02:18:58.118Z,98248.03
2022-10-29T02:21:24.649Z,98262.56
2022-10-29T02:23:51.180Z,98254.88
2022-10-29T02:26:17.731Z,98245.47
2022-10-29T02:28:44.260Z,98233.47
2022-10-29T02:31:10.748Z,98228.34
2022-10-29T02:33:37.241Z,98225.78
2022-10-29T02:36:03.996Z,98230.09
2022-10-29T02:38:30.470Z,98219.00
2022-10-29T02:40:56.969Z,98218.09
2022-10-29T02:43:23.475Z,98219.84
2022-10-29T02:45:50.883Z,98215.53
2022-10-29T02:48:17.431Z,98207.78
2022-10-29T02:50:43.949Z,98209.53
2022-10-29T02:53:10.436Z,98202.63
2022-10-29T02:55:36.956Z,98203.59
2022-10-29T02:58:03.449Z,98201.03
2022-10-29T03:00:29.994Z,98204.34
2022-10-29T03:02:56.809Z,98213.84
2022-10-29T03:05:23.377Z,98199.13
2022-10-29T03:07:49.882Z,98221.50
2022-10-29T03:10:16.525Z,98237.78
2022-10-29T03:12:43.053Z,98236.94
2022-10-29T03:15:09.956Z,98223.13
2022-10-29T03:17:36.507Z,98218.09
2022-10-29T03:20:03.208Z,98210.34
2022-10-29T03:22:29.700Z,98216.44
2022-10-29T03:24:56.218Z,98212.16
2022-10-29T03:27:22.752Z,98213.84
2022-10-29T03:29:49.729Z,98203.34
2022-10-29T03:32:16.196Z,98226.56
2022-10-29T03:34:42.730Z,98223.22
2022-10-29T03:37:09.624Z,98225.78
2022-10-29T03:39:36.117Z,98228.34
2022-10-29T03:42:03.971Z,98229.19
2022-10-29T03:44:31.045Z,98224.91
2022-10-29T03:46:57.540Z,98225.78
2022-10-29T03:49:24.040Z,98225.78
2022-10-29T03:51:50.535Z,98219.78
2022-10-29T03:54:17.029Z,98216.38
2022-10-29T03:56:43.517Z,98212.09
2022-10-29T04:01:37.547Z,98213.81
2022-10-29T04:04:04.138Z,98214.66
2022-10-29T04:06:30.641Z,98222.34
2022-10-29T04:08:57.111Z,98227.47
2022-10-29T04:11:23.763Z,98231.75
2022-10-29T04:13:53.466Z,98234.31
2022-10-29T04:16:19.988Z,98231.81
2022-10-29T04:18:49.844Z,98230.03
2022-10-29T04:29:36.606Z,98232.59
2022-10-29T04:32:03.194Z,98242.06
2022-10-29T04:34:29.714Z,98238.59
2022-10-29T04:36:56.215Z,98233.44
2022-10-29T04:39:23.531Z,98235.16
2022-10-29T04:41:50.156Z,98226.63
2022-10-29T04:44:16.933Z,98210.19
2022-10-29T04:46:43.467Z,98222.28
2022-10-29T04:49:10.021Z,98217.06
2022-10-29T04:51:36.750Z,98212.81
2022-10-29T04:54:03.284Z,98215.53
2022-10-29T04:56:30.583Z,98205.13
2022-10-29T04:58:57.063Z,98220.66
2022-10-29T05:01:23.703Z,98225.78
2022-10-29T05:03:51.406Z,98217.22
2022-10-29T05:06:19.709Z,98199.91
2022-10-29T05:08:46.227Z,98227.47
2022-10-29T05:11:13.287Z,98228.31
2022-10-29T05:13:39.856Z,98232.59
2022-10-29T05:16:06.782Z,98247.19
2022-10-29T05:18:33.275Z,98236.00
2022-10-29T05:20:59.799Z,98243.72
2022-10-29T05:23:26.295Z,98243.72
2022-10-29T05:25:52.894Z,98245.41
2022-10-29T05:28:20.716Z,98242.84
2022-10-29T05:30:48.006Z,98241.06
2022-10-29T05:33:15.318Z,98244.56
2022-10-29T05:35:41.801Z,98246.28
2022-10-29T05:38:09.441Z,98245.41
2022-10-29T05:40:35.931Z,98247.97
2022-10-29T05:43:03.198Z,98254.81
2022-10-29T05:45:29.666Z,98253.94
2022-10-29T05:47:59.954Z,98253.09
2022-10-29T05:50:26.656Z,98258.22
2022-10-29T05:53:05.998Z,98259.94
2022-10-29T05:55:33.439Z,98253.09
2022-10-29T05:58:00.899Z,98254.81
2022-10-29T06:00:28.534Z,98252.25
2022-10-29T06:02:55.604Z,98254.81
2022-10-29T06:05:22.699Z,98245.41
2022-10-29T06:07:56.181Z,98246.25
2022-10-29T06:10:23.515Z,98257.44
2022-10-29T06:12:50.122Z,98255.66
2022-10-29T06:15:17.064Z,98241.16
2022-10-29T06:17:43.973Z,98254.81
2022-10-29T06:20:11.089Z,98260.00
2022-10-29T06:22:37.675Z,98256.53
2022-10-29T06:25:04.418Z,98262.44
2022-10-29T06:27:30.943Z,98260.69
2022-10-29T06:29:57.471Z,98253.88
2022-10-29T06:32:23.951Z,98256.50
2022-10-29T06:34:50.445Z,98253.94
2022-10-29T06:37:16.931Z,98255.66
2022-10-29T06:39:43.429Z,98257.38
2022-10-29T06:42:09.903Z,98254.81
2022-10-29T06:44:36.405Z,98276.16
2022-10-29T06:47:02.884Z,98275.31
2022-10-29T06:49:29.370Z,98277.00
2022-10-29T06:51:55.857Z,98277.00
2022-10-29T06:54:22.355Z,98276.16
2022-10-29T06:56:49.256Z,98271.88
2022-10-29T06:59:15.723Z,98267.63
2022-10-29T07:01:42.249Z,98276.16
2022-10-29T07:04:08.751Z,98265.91
2022-10-29T07:06:35.303Z,98275.38
2022-10-29T07:09:01.808Z,98280.44
2022-10-29T07:11:28.313Z,98277.88
2022-10-29T07:13:54.817Z,98279.59
2022-10-29T07:16:21.293Z,98280.44
2022-10-29T07:18:47.795Z,98280.44
2022-10-29T07:21:14.278Z,98282.13
2022-10-29T07:23:40.782Z,98285.56
2022-10-29T07:26:07.299Z,98279.56
2022-10-29T07:28:33.790Z,98265.81
2022-10-29T07:31:00.684Z,98275.31
2022-10-29T07:33:30.944Z,98279.50
2022-10-29T07:35:58.470Z,98285.56
2022-10-29T07:38:25.183Z,98283.81
2022-10-29T07:40:51.897Z,98285.56
2022-10-29T07:43:18.885Z,98290.69
2022-10-29T07:45:46.130Z,98279.50
2022-10-29T07:48:12.619Z,98286.41
2022-10-29T07:50:39.233Z,98279.56
2022-10-29T07:53:06.051Z,98280.44
2022-10-29T07:55:32.587Z,98283.00
2022-10-29T07:58:02.637Z,98270.97
2022-10-29T08:00:33.689Z,98271.88
2022-10-29T08:03:00.335Z,98274.47
2022-10-29T08:05:27.133Z,98270.19
2022-10-29T08:07:55.066Z,98269.19
2022-10-29T08:10:22.443Z,98278.72
2022-10-29T08:12:50.292Z,98283.84
2022-10-29T08:15:17.270Z,98281.28
2022-10-29T08:17:44.040Z,98285.56
2022-10-29T08:20:10.864Z,98281.28
2022-10-29T08:22:37.325Z,98276.16
2022-10-29T08:25:04.130Z,98285.56
2022-10-29T08:27:30.601Z,98285.56
2022-10-29T08:29:57.094Z,98279.56
2022-10-29T08:32:23.577Z,98288.13
2022-10-29T08:34:50.091Z,98285.56
2022-10-29T08:37:16.565Z,98283.00
2022-10-29T08:39:43.064Z,98289.81
2022-10-29T08:42:27.842Z,98288.13
2022-10-29T08:45:12.643Z,98293.25
2022-10-29T08:48:00.692Z,98282.78
2022-10-29T08:50:29.399Z,98289.81
2022-10-29T08:53:19.443Z,98275.09
2022-10-29T08:55:42.347Z,98297.50
2022-10-29T08:58:35.710Z,98287.25
2022-10-29T09:01:02.203Z,98283.75
2022-10-29T09:03:29.721Z,98262.00
2022-10-29T09:06:05.402Z,98276.06
2022-10-29T09:08:39.261Z,98279.56
2022-10-29T09:11:37.156Z,98288.13
2022-10-29T09:14:17.264Z,98279.56
2022-10-29T09:16:49.687Z,98284.69
2022-10-29T09:19:51.977Z,98279.56
2022-10-29T09:22:29.439Z,98278.66
2022-10-29T09:25:04.455Z,98274.38
2022-10-29T09:27:56.129Z,98277.81
2022-10-29T09:30:22.811Z,98279.50
2022-10-29T09:33:24.819Z,98286.38
2022-10-29T09:35:55.354Z,98282.06
2022-10-29T09:38:32.710Z,98271.66
2022-10-29T09:41:00.274Z,98261.22
2022-10-29T09:43:45.059Z,98271.88
2022-10-29T09:46:59.319Z,98275.25
2022-10-29T09:49:40.921Z,98263.28
2022-10-29T09:52:19.627Z,98262.34
2022-10-29T09:54:46.536Z,98254.59
2022-10-29T09:57:26.611Z,98263.28
2022-10-29T09:59:58.017Z,98255.59
2022-10-29T10:02:43.532Z,98249.53
2022-10-29T10:05:12.985Z,98259.94
2022-10-29T10:07:42.524Z,98253.00
2022-10-29T10:10:22.513Z,98264.19
2022-10-29T10:12:49.596Z,98245.13
2022-10-29T10:15:15.962Z,98260.72
2022-10-29T10:18:04.236Z,98250.47
2022-10-29T10:20:33.646Z,98253.88
2022-10-29T10:23:00.241Z,98243.50
2022-10-29T10:25:35.952Z,98245.34
2022-10-29T10:28:21.627Z,98248.81
2022-10-29T10:31:06.374Z,98243.63
2022-10-29T10:33:34.111Z,98236.00
2022-10-29T10:36:09.789Z,98233.38
2022-10-29T10:38:47.419Z,98245.34
2022-10-29T10:41:14.106Z,98221.28
2022-10-29T10:43:44.745Z,98227.41
2022-10-29T10:46:14.126Z,98218.81
2022-10-29T10:48:40.595Z,98213.75
2022-10-29T10:51:28.501Z,98210.34
2022-10-29T10:53:55.014Z,98210.34
2022-10-29T10:56:22.174Z,98207.78
2022-10-29T10:59:00.511Z,98203.56
2022-10-29T11:01:31.890Z,98201.00
2022-10-29T11:04:13.760Z,98201.00
2022-10-29T11:06:41.422Z,98202.66
2022-10-29T11:09:16.897Z,98194.97
2022-10-29T11:11:47.242Z,98192.41
2022-10-29T11:14:34.584Z,98184.53
2022-10-29T11:17:04.880Z,98190.69
2022-10-29T11:19:39.374Z,98175.91
2022-10-29T11:22:20.120Z,98187.28
2022-10-29T11:25:06.247Z,98186.41
2022-10-29T11:27:41.820Z,98189.84
2022-10-29T11:30:12.221Z,98179.59
2022-10-29T11:32:41.520Z,98177.94
2022-10-29T11:35:16.478Z,98157.22
2022-10-29T11:38:02.334Z,98173.59
2022-10-29T11:40:37.818Z,98165.91
2022-10-29T11:43:11.537Z,98170.25
2022-10-29T11:46:04.048Z,98164.22
2022-10-29T11:48:36.232Z,98153.97
2022-10-29T11:51:40.143Z,98148.84
2022-10-29T11:54:19.611Z,98160.00
2022-10-29T11:56:58.134Z,98152.31
2022-10-29T11:59:33.631Z,98147.19
2022-10-29T12:02:09.009Z,98147.19
2022-10-29T12:04:37.960Z,98130.66
2022-10-29T12:07:14.045Z,98133.47
2022-10-29T12:09:58.710Z,98132.59
2022-10-29T12:12:28.230Z,98129.19
2022-10-29T12:14:54.583Z,98130.91
2022-10-29T12:17:24.865Z,98110.25
2022-10-29T12:20:00.477Z,98120.66
2022-10-29T12:22:29.712Z,98120.66
2022-10-29T12:25:21.086Z,98121.53
2022-10-29T12:28:06.288Z,98123.22
2022-10-29T12:30:35.558Z,98118.94
2022-10-29T12:33:32.210Z,98094.69
2022-10-29T12:36:22.617Z,98113.81
2022-10-29T12:38:51.286Z,98114.66
2022-10-29T12:41:19.662Z,98115.53
2022-10-29T12:43:46.164Z,98104.09
2022-10-29T12:46:27.988Z,98105.28
2022-10-29T12:49:09.689Z,98100.16
2022-10-29T12:51:45.227Z,98107.03
2022-10-29T12:54:14.534Z,98099.34
2022-10-29T12:56:42.851Z,98096.78
2022-10-29T12:59:35.676Z,98096.78
2022-10-29T13:02:27.761Z,98089.91
2022-10-29T13:05:06.732Z,98100.16
2022-10-29T13:07:33.767Z,98084.78
2022-10-29T13:10:23.391Z,98078.78
2022-10-29T13:12:58.511Z,98077.09
2022-10-29T13:15:32.284Z,98081.34
2022-10-29T13:18:03.393Z,98080.53
2022-10-29T13:20:40.713Z,98072.84
2022-10-29T13:23:29.020Z,98072.84
2022-10-29T13:25:55.823Z,98065.91
2022-10-29T13:28:22.212Z,98064.28
2022-10-29T13:30:53.895Z,98060.03
2022-10-29T13:33:20.246Z,98066.91
2022-10-29T13:35:55.736Z,98061.72
2022-10-29T13:39:04.504Z,98058.28
2022-10-29T13:41:42.321Z,98054.03
2022-10-29T13:44:23.032Z,98060.03
2022-10-29T13:46:53.061Z,98057.47
2022-10-29T13:49:32.083Z,98055.75
2022-10-29T13:52:08.630Z,98036.72
2022-10-29T13:55:01.131Z,98054.03
2022-10-29T13:57:30.289Z,98051.53
2022-10-29T14:00:11.880Z,98050.63
2022-10-29T14:02:57.710Z,98044.66
2022-10-29T14:05:38.159Z,98038.59
2022-10-29T14:08:12.528Z,98034.31
2022-10-29T14:10:41.944Z,98044.66
2022-10-29T14:13:32.194Z,98042.09
2022-10-29T14:16:02.769Z,98035.25
2022-10-29T14:18:31.056Z,98041.22
2022-10-29T14:20:58.665Z,98029.94
2022-10-29T14:23:25.380Z,98031.81
2022-10-29T14:25:52.974Z,98041.28
2022-10-29T14:28:22.213Z,98036.97
2022-10-29T14:30:50.219Z,98036.97
2022-10-29T14:33:24.791Z,98037.81
2022-10-29T14:35:51.909Z,98033.53
2022-10-29T14:38:18.381Z,98031.75
2022-10-29T14:40:44.992Z,98029.28
2022-10-29T14:43:25.046Z,98020.56
2022-10-29T14:45:51.593Z,98036.16
2022-10-29T14:48:18.863Z,98029.34
2022-10-29T14:50:50.041Z,98030.88
2022-10-29T14:53:30.927Z,98033.59
2022-10-29T14:55:57.454Z,98023.09
2022-10-29T14:58:29.366Z,98012.00
2022-10-29T15:00:58.197Z,98020.56
2022-10-29T15:03:26.320Z,98018.06
2022-10-29T15:05:52.858Z,98029.28
2022-10-29T15:08:24.176Z,98036.09
2022-10-29T15:10:57.661Z,98035.25
2022-10-29T15:13:31.880Z,98030.13
2022-10-29T15:16:07.429Z,98033.53
2022-10-29T15:18:34.082Z,98023.22
2022-10-29T15:21:00.583Z,98029.28
2022-10-29T15:23:28.942Z,98025.69
2022-10-29T15:26:05.846Z,98034.41
2022-10-29T15:28:37.711Z,98032.69
2022-10-29T15:31:04.328Z,98036.16
2022-10-29T15:33:30.876Z,98025.91
2022-10-29T15:35:59.492Z,98021.56
2022-10-29T15:38:52.375Z,98031.91
2022-10-29T15:41:34.933Z,98031.03
2022-10-29T15:44:01.497Z,98031.03
2022-10-29T15:46:30.084Z,98037.81
2022-10-29T15:48:56.587Z,98037.03
2022-10-29T15:51:29.532Z,98023.19
2022-10-29T15:53:56.579Z,98026.69
2022-10-29T15:56:23.268Z,98022.34
2022-10-29T15:58:49.777Z,98027.56
2022-10-29T16:01:16.988Z,98024.13
2022-10-29T16:03:43.609Z,98018.88
2022-10-29T16:06:10.218Z,97997.91
2022-10-29T16:08:59.978Z,98034.41
2022-10-29T16:11:26.896Z,98027.47
2022-10-29T16:13:55.151Z,98028.41
2022-10-29T16:16:23.217Z,98030.13
2022-10-29T16:18:49.830Z,98025.84
2022-10-29T16:21:19.298Z,98029.28
2022-10-29T16:23:45.861Z,98021.59
2022-10-29T16:26:15.522Z,98024.16
2022-10-29T16:28:43.569Z,98034.41
2022-10-29T16:31:20.778Z,98031.84
2022-10-29T16:33:47.884Z,98030.13
2022-10-29T16:36:14.393Z,98021.66
2022-10-29T16:38:40.937Z,98025.91
2022-10-29T16:41:10.366Z,98025.91
2022-10-29T16:43:36.860Z,98032.69
2022-10-29T16:46:05.531Z,98024.97
2022-10-29T16:48:32.426Z,98027.56
2022-10-29T16:50:58.966Z,98006.06
2022-10-29T16:53:25.453Z,98021.59
2022-10-29T16:55:51.965Z,98027.56
2022-10-29T16:58:18.945Z,98025.91
2022-10-29T17:00:45.483Z,98021.59
2022-10-29T17:03:13.044Z,98024.16
2022-10-29T17:05:41.838Z,98018.16
2022-10-29T17:08:08.372Z,98027.56
2022-10-29T17:10:35.133Z,98026.72
2022-10-29T17:13:01.699Z,98025.84
2022-10-29T17:15:28.182Z,98021.59
2022-10-29T17:17:54.703Z,98019.03
2022-10-29T17:20:21.239Z,98019.88
2022-10-29T17:22:47.727Z,98013.72
2022-10-29T17:25:14.268Z,98019.84
2022-10-29T17:27:41.121Z,98016.38
2022-10-29T17:30:08.758Z,98025.84
2022-10-29T17:32:35.243Z,98042.09
2022-10-29T17:35:01.762Z,98029.28
2022-10-29T17:37:28.313Z,98023.19
2022-10-29T17:39:54.808Z,98034.47
2022-10-29T17:42:21.375Z,98029.34
2022-10-29T17:44:47.905Z,98013.56
2022-10-29T17:47:14.384Z,98037.81
2022-10-29T17:49:40.902Z,98036.97
2022-10-29T17:52:07.367Z,98037.81
2022-10-29T17:54:35.197Z,98030.13
2022-10-29T17:57:01.938Z,98030.13
2022-10-29T17:59:28.477Z,98030.91
2022-10-29T18:01:55.120Z,98029.28
2022-10-29T18:04:21.714Z,98034.38
2022-10-29T18:06:48.230Z,98031.81
2022-10-29T18:09:17.229Z,98028.41
2022-10-29T18:11:47.990Z,98031.81
2022-10-29T18:14:14.497Z,98036.97
2022-10-29T18:16:40.973Z,98029.19
2022-10-29T18:19:07.793Z,98030.97
2022-10-29T18:21:34.292Z,98035.22
2022-10-29T18:24:00.890Z,98036.03
2022-10-29T18:26:31.734Z,98036.97
2022-10-29T18:28:59.362Z,98041.22
2022-10-29T18:31:27.881Z,98038.56
2022-10-29T18:33:54.695Z,98037.81
2022-10-29T18:36:21.223Z,98041.22
2022-10-29T18:38:54.787Z,98034.41
2022-10-29T18:41:21.663Z,98027.47
2022-10-29T18:43:48.280Z,98025.84
2022-10-29T18:46:14.902Z,98027.53
2022-10-29T18:48:42.542Z,98019.75
2022-10-29T18:51:14.482Z,98023.28
2022-10-29T18:53:40.989Z,98020.72
2022-10-29T18:56:14.715Z,98023.22
2022-10-29T18:58:41.327Z,98042.09
2022-10-29T19:01:09.727Z,98013.78
2022-10-29T19:03:36.527Z,98022.41
2022-10-29T19:06:04.748Z,98012.16
2022-10-29T19:08:31.311Z,98010.38
2022-10-29T19:11:01.581Z,98015.59
2022-10-29T19:13:28.040Z,98007.84
2022-10-29T19:15:59.566Z,98019.03
2022-10-29T19:18:26.033Z,98018.94
2022-10-29T19:20:52.531Z,98020.72
2022-10-29T19:23:18.994Z,98014.66
2022-10-29T19:25:45.477Z,98012.16
2022-10-29T19:28:11.944Z,98023.28
2022-10-29T19:30:38.445Z,98023.28
2022-10-29T19:33:08.015Z,98020.78
2022-10-29T19:35:34.891Z,98020.72
2022-10-29T19:38:01.349Z,98028.41
2022-10-29T19:40:27.838Z,98013.72
2022-10-29T19:42:54.322Z,98013.91
2022-10-29T19:45:21.861Z,98018.16
2022-10-29T19:47:48.418Z,98023.28
2022-10-29T19:50:14.995Z,98017.28
2022-10-29T19:52:41.502Z,98014.63
2022-10-29T19:55:08.618Z,98015.53
2022-10-29T19:57:35.087Z,98016.44
2022-10-29T20:00:01.583Z,98007.81
2022-10-29T20:02:28.101Z,98017.28
2022-10-29T20:04:54.612Z,98015.59
2022-10-29T20:07:21.129Z,98014.72
2022-10-29T20:09:47.594Z,98016.44
2022-10-29T20:12:14.082Z,98007.03
2022-10-29T20:14:40.547Z,98009.59
2022-10-29T20:17:07.043Z,98001.06
2022-10-29T20:19:33.546Z,98004.38
2022-10-29T20:22:00.028Z,98013.91
2022-10-29T20:24:26.517Z,98010.47
2022-10-29T20:26:53.011Z,98008.78
2022-10-29T20:29:19.557Z,98012.16
2022-10-29T20:31:46.031Z,98010.47
2022-10-29T20:34:12.560Z,98006.13
2022-10-29T20:36:39.186Z,98005.34
2022-10-29T20:39:07.155Z,98002.69
2022-10-29T20:41:33.609Z,98006.22
2022-10-29T20:44:01.335Z,98012.16
2022-10-29T20:46:27.921Z,98003.63
2022-10-29T20:48:54.464Z,98010.47
2022-10-29T20:51:22.774Z,98012.16
2022-10-29T20:53:49.298Z,98012.97
2022-10-29T20:56:16.610Z,98009.59
2022-10-29T20:58:43.517Z,98011.31
2022-10-29T21:01:17.016Z,98013.88
2022-10-29T21:03:43.906Z,97999.97
2022-10-29T21:06:15.619Z,98006.06
2022-10-29T21:08:43.589Z,98016.44
2022-10-29T21:11:11.092Z,98023.28
2022-10-29T21:13:37.794Z,98012.97
2022-10-29T21:16:17.860Z,98009.59
2022-10-29T21:18:45.333Z,98020.72
2022-10-29T21:21:11.842Z,98013.03
2022-10-29T21:23:38.622Z,97999.09
2022-10-29T21:26:05.893Z,98009.50
2022-10-29T21:28:32.610Z,98014.72
2022-10-29T21:30:59.184Z,98015.59
2022-10-29T21:33:25.700Z,98013.03
2022-10-29T21:35:53.726Z,97990.47
2022-10-29T21:38:24.139Z,97999.13
2022-10-29T21:40:50.809Z,98014.72
2022-10-29T21:43:17.525Z,98008.75
2022-10-29T21:45:45.081Z,98008.75
2022-10-29T21:48:11.847Z,98016.44
2022-10-29T21:50:38.429Z,98020.72
2022-10-29T21:53:05.475Z,98006.81
2022-10-29T21:55:32.030Z,98013.78
2022-10-29T21:57:58.887Z,98024.13
2022-10-29T22:00:25.604Z,98023.22
2022-10-29T22:02:52.213Z,98023.22
2022-10-29T22:05:18.741Z,98012.94
2022-10-29T22:07:45.269Z,98015.53
2022-10-29T22:10:11.813Z,98017.28
2022-10-29T22:12:38.275Z,98011.31
2022-10-29T22:15:05.330Z,98008.75
2022-10-29T22:17:31.819Z,98011.25
2022-10-29T22:19:58.309Z,98011.34
2022-10-29T22:22:24.788Z,98010.47
2022-10-29T22:24:51.280Z,98011.34
2022-10-29T22:27:17.766Z,98011.34
2022-10-29T22:29:44.265Z,98012.19
2022-10-29T22:32:10.749Z,98003.66
2022-10-29T22:34:37.233Z,97999.34
2022-10-29T22:37:03.719Z,98002.78
2022-10-29T22:39:30.219Z,97996.78
2022-10-29T22:41:56.709Z,97992.53
2022-10-29T22:44:23.197Z,97993.38
2022-10-29T22:46:49.676Z,97995.94
2022-10-29T22:49:16.453Z,97984.75
2022-10-29T22:51:43.042Z,98001.06
2022-10-29T22:54:09.531Z,97994.16
2022-10-29T22:56:37.176Z,97988.16
2022-10-29T22:59:04.746Z,97994.22
2022-10-29T23:01:38.801Z,97990.81
2022-10-29T23:04:08.870Z,97994.22
2022-10-29T23:06:36.680Z,97984.75
2022-10-29T23:09:03.219Z,97994.22
2022-10-29T23:11:30.793Z,97982.00
2022-10-29T23:13:58.516Z,98001.06
2022-10-29T23:16:26.452Z,97994.22
2022-10-29T23:18:56.989Z,97995.94
2022-10-29T23:21:23.505Z,97994.16
2022-10-29T23:23:50.098Z,97998.53
2022-10-29T23:26:17.509Z,97997.66
2022-10-29T23:28:44.036Z,98001.09
2022-10-29T23:31:11.939Z,98004.50
2022-10-29T23:33:38.413Z,98005.28
2022-10-29T23:36:05.899Z,97997.66
2022-10-29T23:38:32.470Z,97995.03
2022-10-29T23:40:58.969Z,97991.66
2022-10-29T23:43:25.481Z,97990.81
2022-10-29T23:45:52.056Z,97989.00
2022-10-29T23:48:18.878Z,97975.13
2022-10-29T23:50:45.579Z,97988.19
2022-10-29T23:53:12.098Z,97992.53
2022-10-29T23:55:38.618Z,97993.38
2022-10-29T23:58:05.201Z,97985.63
